MDT,Max TemperatureF,Mean TemperatureF,Min TemperatureF,Max Dew PointF,MeanDew PointF,Min DewpointF,Max Humidity, Mean Humidity, Min Humidity, Max Sea Level PressureIn, Mean Sea Level PressureIn, Min Sea Level PressureIn, Max VisibilityMiles, Mean VisibilityMiles, Min VisibilityMiles, Max Wind SpeedMPH, Mean Wind SpeedMPH, Max Gust SpeedMPH,PrecipitationIn, CloudCover, Events, WindDirDegrees
2011-3-1,60,46,33,9,-2,-13,33,16,5,30.14,30.09,30.02,20,11,10,28,9,34,0.00,1,,334
2011-3-2,59,42,26,19,13,3,69,37,14,30.11,30.03,29.93,20,11,10,22,5,30,0.00,2,,308
2011-3-3,59,49,39,46,22,10,75,39,15,30.01,29.92,29.82,20,11,10,44,12,54,0.00,3,,283
2011-3-4,44,36,28,32,26,5,87,68,29,30.29,30.10,29.86,20,12,10,13,3,17,0.00,3,,95
2011-3-5,48,36,24,23,11,-2,60,38,17,30.29,30.16,29.99,20,10,10,12,3,18,0.00,3,,296
2011-3-6,50,41,30,28,16,9,93,41,19,29.99,29.89,29.78,20,11,7,25,9,34,0.00,5,,349
2011-3-7,30,26,21,27,23,18,100,93,86,29.83,29.78,29.69,10,3,0,9,6,,0.00,8,Fog-Snow,42
2011-3-8,35,27,19,27,18,9,100,77,33,29.99,29.82,29.68,12,5,0,29,7,39,0.00,5,Fog-Snow,356
2011-3-9,53,40,26,19,10,-2,74,37,10,30.33,30.17,30.00,20,10,7,28,11,34,0.00,2,,292
2011-3-10,68,52,37,12,9,-4,33,21,6,30.27,30.15,29.91,10,10,10,20,7,30,0.00,1,,242
2011-3-11,69,55,41,18,7,-6,34,19,5,30.09,29.93,29.83,10,10,10,21,8,34,0.00,2,,166
2011-3-12,53,42,32,30,20,12,75,45,21,30.09,30.04,29.97,20,11,10,16,6,,0.00,3,,359
2011-3-13,55,44,33,36,28,7,100,67,14,30.27,30.12,29.99,20,10,3,22,6,32,0.00,4,Rain,316
2011-3-14,66,49,32,25,17,-8,70,42,6,30.25,30.13,29.98,10,10,10,30,5,39,0.00,3,,278
2011-3-15,57,48,39,27,23,18,61,42,25,30.19,30.09,30.02,20,11,10,17,8,26,0.00,2,,247
2011-3-16,75,56,37,30,16,7,52,24,8,30.01,29.86,29.72,10,10,10,28,9,38,0.00,3,,204
2011-3-17,62,47,32,32,19,3,100,34,13,30.26,29.91,29.72,10,8,1,26,11,38,0.00,3,Snow,138
2011-3-18,57,44,32,32,30,23,100,78,29,30.28,30.20,30.06,20,10,3,13,8,17,0.00,6,Snow,170
2011-3-19,71,52,33,30,20,-15,75,49,4,30.06,29.90,29.71,10,10,10,29,5,38,0.00,2,,289
2011-3-20,64,52,41,12,4,-6,25,15,7,29.94,29.87,29.79,20,11,10,17,8,24,0.00,3,,265
2011-3-21,73,55,37,18,10,-15,45,23,4,29.91,29.76,29.56,20,12,10,29,8,40,0.00,3,,307
2011-3-22,59,44,30,32,15,3,70,31,16,29.86,29.61,29.52,20,12,10,58,21,72,0.00,3,Rain,251
2011-3-23,57,47,37,12,3,-4,36,20,8,30.07,29.90,29.79,10,10,10,36,20,47,0.00,0,,287
2011-3-24,48,37,26,19,14,5,74,43,17,30.04,29.85,29.60,20,11,10,28,7,37,0.00,2,,307
2011-3-25,53,43,33,30,11,1,75,30,17,29.82,29.73,29.59,10,10,10,21,9,25,0.00,3,,286
2011-3-26,51,40,30,32,17,-8,100,58,9,29.84,29.77,29.71,10,8,3,16,9,20,0.00,4,,26
2011-3-27,57,44,32,30,20,1,87,49,11,29.80,29.71,29.63,20,10,10,23,8,30,0.00,4,,334
2011-3-28,53,42,32,36,28,10,100,77,18,29.96,29.80,29.75,10,5,0,32,8,38,0.00,7,Fog-Snow,340
2011-3-29,48,39,30,32,21,-6,100,62,10,30.13,30.04,29.97,12,8,1,15,8,,0.00,5,Fog-Rain-Snow,359
2011-3-30,55,46,37,27,15,9,45,31,20,29.99,29.92,29.81,10,10,10,34,15,48,0.00,3,,280
2011-3-31,66,56,46,28,24,18,46,33,16,29.97,29.84,29.80,10,10,10,37,22,50,0.00,3,,284